sensor_id;sensor_type;location;lat;lon;timestamp;P1;durP1;ratioP1;P2;durP2;ratioP2
4758;SDS011;2393;50.560;12.636;2023-09-30T00:00:21;37.33;;;9.90;;
4758;SDS011;2393;50.560;12.636;2023-09-30T00:02:50;30.03;;;10.20;;
4758;SDS011;2393;50.560;12.636;2023-09-30T00:05:19;34.83;;;10.73;;
4758;SDS011;2393;50.560;12.636;2023-09-30T00:07:49;36.97;;;11.53;;
4758;SDS011;2393;50.560;12.636;2023-09-30T00:10:17;35.40;;;9.60;;
4758;SDS011;2393;50.560;12.636;2023-09-30T00:12:46;36.33;;;10.07;;
4758;SDS011;2393;50.560;12.636;2023-09-30T00:15:14;36.23;;;10.73;;
4758;SDS011;2393;50.560;12.636;2023-09-30T00:17:43;37.33;;;10.70;;
4758;SDS011;2393;50.560;12.636;2023-09-30T00:20:11;37.03;;;10.07;;
4758;SDS011;2393;50.560;12.636;2023-09-30T00:22:41;30.57;;;9.33;;
4758;SDS011;2393;50.560;12.636;2023-09-30T00:25:11;31.90;;;9.93;;
4758;SDS011;2393;50.560;12.636;2023-09-30T00:27:40;28.17;;;9.90;;
4758;SDS011;2393;50.560;12.636;2023-09-30T00:30:09;39.27;;;12.03;;
4758;SDS011;2393;50.560;12.636;2023-09-30T00:32:38;36.60;;;10.83;;
4758;SDS011;2393;50.560;12.636;2023-09-30T00:35:07;33.10;;;10.57;;
4758;SDS011;2393;50.560;12.636;2023-09-30T00:37:38;32.33;;;9.57;;
4758;SDS011;2393;50.560;12.636;2023-09-30T00:40:07;33.03;;;9.40;;
4758;SDS011;2393;50.560;12.636;2023-09-30T00:42:40;29.10;;;8.80;;
4758;SDS011;2393;50.560;12.636;2023-09-30T00:45:09;42.30;;;11.37;;
4758;SDS011;2393;50.560;12.636;2023-09-30T00:47:38;25.33;;;9.03;;
4758;SDS011;2393;50.560;12.636;2023-09-30T00:50:09;10.93;;;3.17;;
4758;SDS011;2393;50.560;12.636;2023-09-30T00:52:39;8.50;;;3.10;;
4758;SDS011;2393;50.560;12.636;2023-09-30T00:55:08;4.40;;;2.37;;
4758;SDS011;2393;50.560;12.636;2023-09-30T00:57:37;2.90;;;2.27;;
4758;SDS011;2393;50.560;12.636;2023-09-30T01:00:08;2.00;;;1.80;;
4758;SDS011;2393;50.560;12.636;2023-09-30T01:02:39;2.83;;;2.13;;
4758;SDS011;2393;50.560;12.636;2023-09-30T01:05:08;4.33;;;1.83;;
4758;SDS011;2393;50.560;12.636;2023-09-30T01:07:37;2.67;;;2.07;;
4758;SDS011;2393;50.560;12.636;2023-09-30T01:10:06;2.17;;;2.07;;
4758;SDS011;2393;50.560;12.636;2023-09-30T01:12:35;3.93;;;2.00;;
4758;SDS011;2393;50.560;12.636;2023-09-30T01:15:05;9.47;;;1.97;;
4758;SDS011;2393;50.560;12.636;2023-09-30T01:17:34;3.50;;;1.53;;
4758;SDS011;2393;50.560;12.636;2023-09-30T01:20:03;5.83;;;1.83;;
4758;SDS011;2393;50.560;12.636;2023-09-30T01:22:34;2.90;;;1.80;;
4758;SDS011;2393;50.560;12.636;2023-09-30T01:25:03;3.10;;;1.73;;
4758;SDS011;2393;50.560;12.636;2023-09-30T01:27:33;1.80;;;1.07;;
4758;SDS011;2393;50.560;12.636;2023-09-30T01:30:01;2.60;;;1.47;;
4758;SDS011;2393;50.560;12.636;2023-09-30T01:32:31;5.03;;;2.80;;
4758;SDS011;2393;50.560;12.636;2023-09-30T01:34:59;0.97;;;0.80;;
4758;SDS011;2393;50.560;12.636;2023-09-30T01:37:28;1.57;;;1.20;;
4758;SDS011;2393;50.560;12.636;2023-09-30T01:39:58;2.73;;;0.93;;
4758;SDS011;2393;50.560;12.636;2023-09-30T01:42:27;4.50;;;0.80;;
4758;SDS011;2393;50.560;12.636;2023-09-30T01:44:55;0.90;;;0.77;;
4758;SDS011;2393;50.560;12.636;2023-09-30T01:47:24;2.23;;;0.73;;
4758;SDS011;2393;50.560;12.636;2023-09-30T01:49:53;1.10;;;0.70;;
4758;SDS011;2393;50.560;12.636;2023-09-30T01:52:21;1.10;;;0.93;;
4758;SDS011;2393;50.560;12.636;2023-09-30T01:54:50;0.90;;;0.80;;
4758;SDS011;2393;50.560;12.636;2023-09-30T01:57:21;2.63;;;0.63;;
4758;SDS011;2393;50.560;12.636;2023-09-30T01:59:49;3.00;;;1.40;;
4758;SDS011;2393;50.560;12.636;2023-09-30T02:02:18;10.13;;;1.37;;
4758;SDS011;2393;50.560;12.636;2023-09-30T02:04:46;5.63;;;1.17;;
4758;SDS011;2393;50.560;12.636;2023-09-30T02:07:15;1.83;;;1.20;;
4758;SDS011;2393;50.560;12.636;2023-09-30T02:09:48;3.07;;;1.13;;
4758;SDS011;2393;50.560;12.636;2023-09-30T02:12:17;4.20;;;1.33;;
4758;SDS011;2393;50.560;12.636;2023-09-30T02:14:47;4.13;;;1.13;;
4758;SDS011;2393;50.560;12.636;2023-09-30T02:17:15;1.77;;;1.10;;
4758;SDS011;2393;50.560;12.636;2023-09-30T02:19:44;3.53;;;1.73;;
4758;SDS011;2393;50.560;12.636;2023-09-30T02:22:12;3.50;;;1.87;;
4758;SDS011;2393;50.560;12.636;2023-09-30T02:24:42;5.60;;;2.00;;
4758;SDS011;2393;50.560;12.636;2023-09-30T02:27:10;6.60;;;1.53;;
4758;SDS011;2393;50.560;12.636;2023-09-30T02:29:39;2.37;;;1.50;;
4758;SDS011;2393;50.560;12.636;2023-09-30T02:32:10;4.93;;;1.40;;
4758;SDS011;2393;50.560;12.636;2023-09-30T02:34:40;1.77;;;1.57;;
4758;SDS011;2393;50.560;12.636;2023-09-30T02:37:09;2.10;;;1.40;;
4758;SDS011;2393;50.560;12.636;2023-09-30T02:39:38;5.33;;;1.23;;
4758;SDS011;2393;50.560;12.636;2023-09-30T02:42:07;3.77;;;1.77;;
4758;SDS011;2393;50.560;12.636;2023-09-30T02:44:35;2.47;;;1.90;;
4758;SDS011;2393;50.560;12.636;2023-09-30T02:47:04;3.73;;;1.33;;
4758;SDS011;2393;50.560;12.636;2023-09-30T02:49:34;3.77;;;1.70;;
4758;SDS011;2393;50.560;12.636;2023-09-30T02:52:02;6.97;;;2.00;;
4758;SDS011;2393;50.560;12.636;2023-09-30T02:54:32;3.07;;;1.80;;
4758;SDS011;2393;50.560;12.636;2023-09-30T02:57:00;5.20;;;2.40;;
4758;SDS011;2393;50.560;12.636;2023-09-30T02:59:30;7.80;;;1.90;;
4758;SDS011;2393;50.560;12.636;2023-09-30T03:01:59;4.67;;;1.23;;
4758;SDS011;2393;50.560;12.636;2023-09-30T03:04:27;4.77;;;1.97;;
4758;SDS011;2393;50.560;12.636;2023-09-30T03:06:58;2.00;;;1.80;;
4758;SDS011;2393;50.560;12.636;2023-09-30T03:09:27;4.20;;;1.93;;
4758;SDS011;2393;50.560;12.636;2023-09-30T03:11:55;2.63;;;1.80;;
4758;SDS011;2393;50.560;12.636;2023-09-30T03:14:25;7.07;;;1.80;;
4758;SDS011;2393;50.560;12.636;2023-09-30T03:16:57;2.80;;;1.40;;
4758;SDS011;2393;50.560;12.636;2023-09-30T03:19:26;2.20;;;1.23;;
4758;SDS011;2393;50.560;12.636;2023-09-30T03:21:54;5.20;;;1.60;;
4758;SDS011;2393;50.560;12.636;2023-09-30T03:24:25;6.13;;;1.50;;
4758;SDS011;2393;50.560;12.636;2023-09-30T03:26:53;7.80;;;1.87;;
4758;SDS011;2393;50.560;12.636;2023-09-30T03:29:22;7.40;;;3.17;;
4758;SDS011;2393;50.560;12.636;2023-09-30T03:31:50;14.77;;;7.10;;
4758;SDS011;2393;50.560;12.636;2023-09-30T03:34:19;11.13;;;7.47;;
4758;SDS011;2393;50.560;12.636;2023-09-30T03:36:47;10.63;;;7.60;;
4758;SDS011;2393;50.560;12.636;2023-09-30T03:39:15;10.50;;;6.90;;
4758;SDS011;2393;50.560;12.636;2023-09-30T03:41:55;14.40;;;8.03;;
4758;SDS011;2393;50.560;12.636;2023-09-30T03:44:24;11.33;;;6.40;;
4758;SDS011;2393;50.560;12.636;2023-09-30T03:46:53;10.67;;;6.70;;
4758;SDS011;2393;50.560;12.636;2023-09-30T03:49:21;12.20;;;7.20;;
4758;SDS011;2393;50.560;12.636;2023-09-30T03:51:50;9.90;;;6.20;;
4758;SDS011;2393;50.560;12.636;2023-09-30T03:54:20;12.63;;;6.87;;
4758;SDS011;2393;50.560;12.636;2023-09-30T03:56:48;11.13;;;5.60;;
4758;SDS011;2393;50.560;12.636;2023-09-30T03:59:18;15.67;;;6.77;;
4758;SDS011;2393;50.560;12.636;2023-09-30T04:01:47;10.53;;;5.20;;
4758;SDS011;2393;50.560;12.636;2023-09-30T04:04:15;16.53;;;5.87;;
4758;SDS011;2393;50.560;12.636;2023-09-30T04:06:44;11.40;;;5.43;;
4758;SDS011;2393;50.560;12.636;2023-09-30T04:09:14;8.60;;;4.90;;
4758;SDS011;2393;50.560;12.636;2023-09-30T04:11:42;6.60;;;4.10;;
4758;SDS011;2393;50.560;12.636;2023-09-30T04:14:11;11.37;;;5.03;;
4758;SDS011;2393;50.560;12.636;2023-09-30T04:16:41;10.73;;;4.73;;
4758;SDS011;2393;50.560;12.636;2023-09-30T04:19:09;15.90;;;5.20;;
4758;SDS011;2393;50.560;12.636;2023-09-30T04:21:38;25.03;;;5.70;;
4758;SDS011;2393;50.560;12.636;2023-09-30T04:24:07;7.17;;;4.60;;
4758;SDS011;2393;50.560;12.636;2023-09-30T04:26:36;11.50;;;4.90;;
4758;SDS011;2393;50.560;12.636;2023-09-30T04:29:04;12.63;;;5.43;;
4758;SDS011;2393;50.560;12.636;2023-09-30T04:31:33;10.33;;;3.70;;
4758;SDS011;2393;50.560;12.636;2023-09-30T04:34:03;10.57;;;5.20;;
4758;SDS011;2393;50.560;12.636;2023-09-30T04:36:31;9.70;;;5.27;;
4758;SDS011;2393;50.560;12.636;2023-09-30T04:39:01;10.03;;;5.33;;
4758;SDS011;2393;50.560;12.636;2023-09-30T04:41:31;10.10;;;4.90;;
4758;SDS011;2393;50.560;12.636;2023-09-30T04:44:00;10.93;;;5.17;;
4758;SDS011;2393;50.560;12.636;2023-09-30T04:46:28;10.30;;;5.30;;
4758;SDS011;2393;50.560;12.636;2023-09-30T04:48:57;11.43;;;5.60;;
4758;SDS011;2393;50.560;12.636;2023-09-30T04:51:26;12.43;;;4.90;;
4758;SDS011;2393;50.560;12.636;2023-09-30T04:53:55;14.33;;;4.80;;
4758;SDS011;2393;50.560;12.636;2023-09-30T04:56:26;8.93;;;5.10;;
4758;SDS011;2393;50.560;12.636;2023-09-30T04:58:54;9.83;;;4.70;;
4758;SDS011;2393;50.560;12.636;2023-09-30T05:01:22;10.23;;;4.93;;
4758;SDS011;2393;50.560;12.636;2023-09-30T05:03:51;14.53;;;4.23;;
4758;SDS011;2393;50.560;12.636;2023-09-30T05:06:20;8.80;;;4.43;;
4758;SDS011;2393;50.560;12.636;2023-09-30T05:08:50;7.60;;;5.07;;
4758;SDS011;2393;50.560;12.636;2023-09-30T05:11:18;13.70;;;4.83;;
4758;SDS011;2393;50.560;12.636;2023-09-30T05:13:47;9.33;;;4.60;;
4758;SDS011;2393;50.560;12.636;2023-09-30T05:16:15;15.13;;;5.33;;
4758;SDS011;2393;50.560;12.636;2023-09-30T05:18:44;10.93;;;5.07;;
4758;SDS011;2393;50.560;12.636;2023-09-30T05:21:15;15.10;;;4.43;;
4758;SDS011;2393;50.560;12.636;2023-09-30T05:23:43;7.30;;;4.57;;
4758;SDS011;2393;50.560;12.636;2023-09-30T05:26:13;8.37;;;4.80;;
4758;SDS011;2393;50.560;12.636;2023-09-30T05:28:41;9.80;;;5.00;;
4758;SDS011;2393;50.560;12.636;2023-09-30T05:31:10;7.80;;;5.10;;
4758;SDS011;2393;50.560;12.636;2023-09-30T05:33:38;6.00;;;4.57;;
4758;SDS011;2393;50.560;12.636;2023-09-30T05:36:07;5.50;;;4.57;;
4758;SDS011;2393;50.560;12.636;2023-09-30T05:38:35;11.43;;;4.30;;
4758;SDS011;2393;50.560;12.636;2023-09-30T05:41:04;10.10;;;5.17;;
4758;SDS011;2393;50.560;12.636;2023-09-30T05:43:34;15.50;;;4.83;;
4758;SDS011;2393;50.560;12.636;2023-09-30T05:46:02;8.70;;;4.97;;
4758;SDS011;2393;50.560;12.636;2023-09-30T05:48:32;13.90;;;6.43;;
4758;SDS011;2393;50.560;12.636;2023-09-30T05:51:00;11.60;;;5.17;;
4758;SDS011;2393;50.560;12.636;2023-09-30T05:53:29;10.10;;;5.93;;
4758;SDS011;2393;50.560;12.636;2023-09-30T05:55:59;11.93;;;5.53;;
4758;SDS011;2393;50.560;12.636;2023-09-30T05:58:30;17.87;;;6.30;;
4758;SDS011;2393;50.560;12.636;2023-09-30T06:01:00;10.43;;;5.37;;
4758;SDS011;2393;50.560;12.636;2023-09-30T06:03:28;15.33;;;5.47;;
4758;SDS011;2393;50.560;12.636;2023-09-30T06:05:57;9.50;;;5.07;;
4758;SDS011;2393;50.560;12.636;2023-09-30T06:08:26;7.23;;;5.07;;
4758;SDS011;2393;50.560;12.636;2023-09-30T06:10:55;18.23;;;7.43;;
4758;SDS011;2393;50.560;12.636;2023-09-30T06:13:25;12.00;;;6.27;;
4758;SDS011;2393;50.560;12.636;2023-09-30T06:15:54;10.47;;;5.70;;
4758;SDS011;2393;50.560;12.636;2023-09-30T06:18:24;13.70;;;5.67;;
4758;SDS011;2393;50.560;12.636;2023-09-30T06:20:53;11.43;;;5.00;;
4758;SDS011;2393;50.560;12.636;2023-09-30T06:23:21;6.70;;;4.33;;
4758;SDS011;2393;50.560;12.636;2023-09-30T06:25:49;11.53;;;4.00;;
4758;SDS011;2393;50.560;12.636;2023-09-30T06:28:19;8.73;;;3.50;;
4758;SDS011;2393;50.560;12.636;2023-09-30T06:30:52;11.60;;;3.40;;
4758;SDS011;2393;50.560;12.636;2023-09-30T06:33:21;8.83;;;3.43;;
4758;SDS011;2393;50.560;12.636;2023-09-30T06:35:51;7.60;;;3.00;;
4758;SDS011;2393;50.560;12.636;2023-09-30T06:38:19;6.50;;;2.53;;
4758;SDS011;2393;50.560;12.636;2023-09-30T06:40:48;8.20;;;3.50;;
4758;SDS011;2393;50.560;12.636;2023-09-30T06:43:17;11.93;;;3.23;;
4758;SDS011;2393;50.560;12.636;2023-09-30T06:45:45;4.07;;;2.77;;
4758;SDS011;2393;50.560;12.636;2023-09-30T06:48:16;10.07;;;4.60;;
4758;SDS011;2393;50.560;12.636;2023-09-30T06:50:45;6.90;;;2.83;;
4758;SDS011;2393;50.560;12.636;2023-09-30T06:53:16;12.33;;;3.43;;
4758;SDS011;2393;50.560;12.636;2023-09-30T06:55:46;10.13;;;3.50;;
4758;SDS011;2393;50.560;12.636;2023-09-30T06:58:14;13.13;;;5.07;;
4758;SDS011;2393;50.560;12.636;2023-09-30T07:00:49;6.20;;;3.17;;
4758;SDS011;2393;50.560;12.636;2023-09-30T07:03:20;6.97;;;3.03;;
4758;SDS011;2393;50.560;12.636;2023-09-30T07:05:52;13.00;;;3.50;;
4758;SDS011;2393;50.560;12.636;2023-09-30T07:08:24;12.20;;;3.43;;
4758;SDS011;2393;50.560;12.636;2023-09-30T07:10:52;12.33;;;3.53;;
4758;SDS011;2393;50.560;12.636;2023-09-30T07:13:21;13.60;;;2.97;;
4758;SDS011;2393;50.560;12.636;2023-09-30T07:15:50;17.57;;;3.03;;
4758;SDS011;2393;50.560;12.636;2023-09-30T07:18:18;20.13;;;3.27;;
4758;SDS011;2393;50.560;12.636;2023-09-30T07:20:47;10.60;;;2.57;;
4758;SDS011;2393;50.560;12.636;2023-09-30T07:23:15;11.87;;;3.30;;
4758;SDS011;2393;50.560;12.636;2023-09-30T07:25:47;10.60;;;3.97;;
4758;SDS011;2393;50.560;12.636;2023-09-30T07:28:16;16.77;;;4.40;;
4758;SDS011;2393;50.560;12.636;2023-09-30T07:30:44;12.10;;;3.60;;
4758;SDS011;2393;50.560;12.636;2023-09-30T07:33:13;5.90;;;2.80;;
4758;SDS011;2393;50.560;12.636;2023-09-30T07:35:42;8.40;;;3.83;;
4758;SDS011;2393;50.560;12.636;2023-09-30T07:38:11;8.93;;;4.83;;
4758;SDS011;2393;50.560;12.636;2023-09-30T07:40:39;18.70;;;4.03;;
4758;SDS011;2393;50.560;12.636;2023-09-30T07:43:09;10.70;;;3.80;;
4758;SDS011;2393;50.560;12.636;2023-09-30T07:45:39;14.60;;;4.47;;
4758;SDS011;2393;50.560;12.636;2023-09-30T07:48:10;15.60;;;3.87;;
4758;SDS011;2393;50.560;12.636;2023-09-30T07:50:39;16.50;;;4.00;;
4758;SDS011;2393;50.560;12.636;2023-09-30T07:53:08;9.03;;;4.03;;
4758;SDS011;2393;50.560;12.636;2023-09-30T07:55:38;10.90;;;3.60;;
4758;SDS011;2393;50.560;12.636;2023-09-30T07:58:07;9.10;;;3.80;;
4758;SDS011;2393;50.560;12.636;2023-09-30T08:00:37;7.47;;;3.77;;
4758;SDS011;2393;50.560;12.636;2023-09-30T08:03:06;16.20;;;4.27;;
4758;SDS011;2393;50.560;12.636;2023-09-30T08:05:35;7.77;;;3.60;;
4758;SDS011;2393;50.560;12.636;2023-09-30T08:08:04;11.60;;;2.93;;
4758;SDS011;2393;50.560;12.636;2023-09-30T08:10:33;14.03;;;4.30;;
4758;SDS011;2393;50.560;12.636;2023-09-30T08:13:03;12.30;;;3.57;;
4758;SDS011;2393;50.560;12.636;2023-09-30T08:15:33;8.90;;;3.60;;
4758;SDS011;2393;50.560;12.636;2023-09-30T08:18:02;9.23;;;3.43;;
4758;SDS011;2393;50.560;12.636;2023-09-30T08:20:32;4.83;;;3.27;;
4758;SDS011;2393;50.560;12.636;2023-09-30T08:23:01;14.03;;;3.33;;
4758;SDS011;2393;50.560;12.636;2023-09-30T08:25:30;10.70;;;3.97;;
4758;SDS011;2393;50.560;12.636;2023-09-30T08:27:58;7.03;;;3.07;;
4758;SDS011;2393;50.560;12.636;2023-09-30T08:30:27;9.50;;;3.20;;
4758;SDS011;2393;50.560;12.636;2023-09-30T08:32:57;10.50;;;3.67;;
4758;SDS011;2393;50.560;12.636;2023-09-30T08:35:26;11.70;;;3.70;;
4758;SDS011;2393;50.560;12.636;2023-09-30T08:37:54;9.10;;;3.87;;
4758;SDS011;2393;50.560;12.636;2023-09-30T08:40:24;8.77;;;3.80;;
4758;SDS011;2393;50.560;12.636;2023-09-30T08:42:59;14.30;;;3.80;;
4758;SDS011;2393;50.560;12.636;2023-09-30T08:45:31;11.80;;;2.60;;
4758;SDS011;2393;50.560;12.636;2023-09-30T08:48:06;6.60;;;2.90;;
4758;SDS011;2393;50.560;12.636;2023-09-30T08:50:35;15.30;;;2.77;;
4758;SDS011;2393;50.560;12.636;2023-09-30T08:53:09;9.03;;;3.97;;
4758;SDS011;2393;50.560;12.636;2023-09-30T08:55:38;8.23;;;3.60;;
4758;SDS011;2393;50.560;12.636;2023-09-30T08:58:10;8.87;;;2.70;;
4758;SDS011;2393;50.560;12.636;2023-09-30T09:00:39;16.43;;;2.70;;
4758;SDS011;2393;50.560;12.636;2023-09-30T09:03:09;10.20;;;2.60;;
4758;SDS011;2393;50.560;12.636;2023-09-30T09:05:38;8.20;;;2.67;;
4758;SDS011;2393;50.560;12.636;2023-09-30T09:08:07;5.57;;;2.57;;
4758;SDS011;2393;50.560;12.636;2023-09-30T09:10:38;10.33;;;1.97;;
4758;SDS011;2393;50.560;12.636;2023-09-30T09:13:21;11.43;;;2.07;;
4758;SDS011;2393;50.560;12.636;2023-09-30T09:15:50;8.43;;;1.90;;
4758;SDS011;2393;50.560;12.636;2023-09-30T09:18:37;13.20;;;2.07;;
4758;SDS011;2393;50.560;12.636;2023-09-30T09:21:11;4.60;;;1.70;;
4758;SDS011;2393;50.560;12.636;2023-09-30T09:23:41;5.90;;;2.43;;
4758;SDS011;2393;50.560;12.636;2023-09-30T09:26:10;11.67;;;2.10;;
4758;SDS011;2393;50.560;12.636;2023-09-30T09:28:44;7.40;;;2.70;;
4758;SDS011;2393;50.560;12.636;2023-09-30T09:31:21;8.10;;;1.83;;
4758;SDS011;2393;50.560;12.636;2023-09-30T09:33:51;7.40;;;1.63;;
4758;SDS011;2393;50.560;12.636;2023-09-30T09:36:21;9.20;;;1.50;;
4758;SDS011;2393;50.560;12.636;2023-09-30T09:39:05;3.70;;;1.10;;
4758;SDS011;2393;50.560;12.636;2023-09-30T09:41:50;6.27;;;1.70;;
4758;SDS011;2393;50.560;12.636;2023-09-30T09:44:19;12.23;;;2.23;;
4758;SDS011;2393;50.560;12.636;2023-09-30T09:46:49;6.10;;;2.07;;
4758;SDS011;2393;50.560;12.636;2023-09-30T09:49:19;5.60;;;1.43;;
4758;SDS011;2393;50.560;12.636;2023-09-30T09:51:49;6.57;;;2.13;;
4758;SDS011;2393;50.560;12.636;2023-09-30T09:54:19;4.80;;;2.00;;
4758;SDS011;2393;50.560;12.636;2023-09-30T09:56:49;7.03;;;2.93;;
4758;SDS011;2393;50.560;12.636;2023-09-30T09:59:20;6.80;;;1.37;;
4758;SDS011;2393;50.560;12.636;2023-09-30T10:01:52;10.53;;;1.40;;
4758;SDS011;2393;50.560;12.636;2023-09-30T10:04:22;6.63;;;1.30;;
4758;SDS011;2393;50.560;12.636;2023-09-30T10:06:52;5.20;;;1.40;;
4758;SDS011;2393;50.560;12.636;2023-09-30T10:09:22;5.20;;;1.50;;
4758;SDS011;2393;50.560;12.636;2023-09-30T10:11:56;3.50;;;1.37;;
4758;SDS011;2393;50.560;12.636;2023-09-30T10:14:29;12.93;;;1.97;;
4758;SDS011;2393;50.560;12.636;2023-09-30T10:16:59;4.10;;;1.53;;
4758;SDS011;2393;50.560;12.636;2023-09-30T10:19:31;10.87;;;1.40;;
4758;SDS011;2393;50.560;12.636;2023-09-30T10:24:53;6.73;;;1.20;;
4758;SDS011;2393;50.560;12.636;2023-09-30T10:27:31;14.93;;;1.83;;
4758;SDS011;2393;50.560;12.636;2023-09-30T10:30:08;12.30;;;1.23;;
4758;SDS011;2393;50.560;12.636;2023-09-30T10:35:45;8.70;;;1.80;;
4758;SDS011;2393;50.560;12.636;2023-09-30T10:41:04;4.77;;;1.30;;
4758;SDS011;2393;50.560;12.636;2023-09-30T10:43:35;6.53;;;1.90;;
4758;SDS011;2393;50.560;12.636;2023-09-30T10:46:05;8.23;;;1.67;;
4758;SDS011;2393;50.560;12.636;2023-09-30T10:52:01;3.33;;;1.07;;
4758;SDS011;2393;50.560;12.636;2023-09-30T10:54:31;5.80;;;1.50;;
4758;SDS011;2393;50.560;12.636;2023-09-30T10:57:00;6.40;;;1.57;;
4758;SDS011;2393;50.560;12.636;2023-09-30T10:59:31;9.37;;;2.07;;
4758;SDS011;2393;50.560;12.636;2023-09-30T11:02:02;6.10;;;2.43;;
4758;SDS011;2393;50.560;12.636;2023-09-30T11:04:44;6.77;;;1.57;;
4758;SDS011;2393;50.560;12.636;2023-09-30T11:07:18;4.70;;;1.07;;
4758;SDS011;2393;50.560;12.636;2023-09-30T11:09:53;7.10;;;1.47;;
4758;SDS011;2393;50.560;12.636;2023-09-30T11:12:22;5.53;;;1.70;;
4758;SDS011;2393;50.560;12.636;2023-09-30T11:14:58;7.40;;;1.60;;
4758;SDS011;2393;50.560;12.636;2023-09-30T11:17:28;11.23;;;1.70;;
4758;SDS011;2393;50.560;12.636;2023-09-30T11:19:56;5.73;;;1.57;;
4758;SDS011;2393;50.560;12.636;2023-09-30T11:22:26;6.40;;;1.83;;
4758;SDS011;2393;50.560;12.636;2023-09-30T11:24:55;6.67;;;1.37;;
4758;SDS011;2393;50.560;12.636;2023-09-30T11:27:23;7.27;;;1.40;;
4758;SDS011;2393;50.560;12.636;2023-09-30T11:29:54;6.10;;;1.20;;
4758;SDS011;2393;50.560;12.636;2023-09-30T11:32:23;7.37;;;1.47;;
4758;SDS011;2393;50.560;12.636;2023-09-30T11:34:54;2.50;;;1.53;;
4758;SDS011;2393;50.560;12.636;2023-09-30T11:37:23;7.17;;;1.47;;
4758;SDS011;2393;50.560;12.636;2023-09-30T11:40:09;5.60;;;1.60;;
4758;SDS011;2393;50.560;12.636;2023-09-30T11:42:40;3.93;;;1.20;;
4758;SDS011;2393;50.560;12.636;2023-09-30T11:45:18;3.60;;;1.00;;
4758;SDS011;2393;50.560;12.636;2023-09-30T11:47:49;7.53;;;1.93;;
4758;SDS011;2393;50.560;12.636;2023-09-30T11:50:18;2.40;;;0.97;;
4758;SDS011;2393;50.560;12.636;2023-09-30T11:52:47;5.60;;;1.50;;
4758;SDS011;2393;50.560;12.636;2023-09-30T11:55:17;10.30;;;1.27;;
4758;SDS011;2393;50.560;12.636;2023-09-30T11:57:49;9.27;;;1.70;;
4758;SDS011;2393;50.560;12.636;2023-09-30T12:00:21;3.17;;;1.13;;
4758;SDS011;2393;50.560;12.636;2023-09-30T12:02:51;2.53;;;1.37;;
4758;SDS011;2393;50.560;12.636;2023-09-30T12:05:20;3.63;;;1.80;;
4758;SDS011;2393;50.560;12.636;2023-09-30T12:07:49;3.70;;;1.53;;
4758;SDS011;2393;50.560;12.636;2023-09-30T12:10:19;3.37;;;1.50;;
4758;SDS011;2393;50.560;12.636;2023-09-30T12:12:47;4.77;;;1.70;;
4758;SDS011;2393;50.560;12.636;2023-09-30T12:15:16;3.60;;;0.87;;
4758;SDS011;2393;50.560;12.636;2023-09-30T12:17:48;9.10;;;2.17;;
4758;SDS011;2393;50.560;12.636;2023-09-30T12:20:17;2.10;;;0.93;;
4758;SDS011;2393;50.560;12.636;2023-09-30T12:22:45;3.93;;;1.00;;
4758;SDS011;2393;50.560;12.636;2023-09-30T12:25:14;4.20;;;1.17;;
4758;SDS011;2393;50.560;12.636;2023-09-30T12:27:47;9.43;;;1.17;;
4758;SDS011;2393;50.560;12.636;2023-09-30T12:30:15;4.87;;;0.83;;
4758;SDS011;2393;50.560;12.636;2023-09-30T12:32:46;6.90;;;1.43;;
4758;SDS011;2393;50.560;12.636;2023-09-30T12:35:15;1.87;;;0.90;;
4758;SDS011;2393;50.560;12.636;2023-09-30T12:37:43;3.17;;;1.13;;
4758;SDS011;2393;50.560;12.636;2023-09-30T12:40:12;5.40;;;1.20;;
4758;SDS011;2393;50.560;12.636;2023-09-30T12:42:43;2.40;;;0.87;;
4758;SDS011;2393;50.560;12.636;2023-09-30T12:45:13;3.60;;;1.50;;
4758;SDS011;2393;50.560;12.636;2023-09-30T12:47:43;1.60;;;1.00;;
4758;SDS011;2393;50.560;12.636;2023-09-30T12:50:13;4.87;;;1.10;;
4758;SDS011;2393;50.560;12.636;2023-09-30T12:52:42;1.40;;;0.73;;
4758;SDS011;2393;50.560;12.636;2023-09-30T12:55:10;6.83;;;1.43;;
4758;SDS011;2393;50.560;12.636;2023-09-30T12:57:39;1.73;;;1.00;;
4758;SDS011;2393;50.560;12.636;2023-09-30T13:00:08;8.33;;;0.77;;
4758;SDS011;2393;50.560;12.636;2023-09-30T13:02:39;3.63;;;0.93;;
4758;SDS011;2393;50.560;12.636;2023-09-30T13:05:08;4.20;;;1.13;;
4758;SDS011;2393;50.560;12.636;2023-09-30T13:07:36;4.23;;;1.00;;
4758;SDS011;2393;50.560;12.636;2023-09-30T13:10:05;1.53;;;0.70;;
4758;SDS011;2393;50.560;12.636;2023-09-30T13:12:35;4.97;;;0.80;;
4758;SDS011;2393;50.560;12.636;2023-09-30T13:15:04;6.83;;;0.60;;
4758;SDS011;2393;50.560;12.636;2023-09-30T13:17:33;2.60;;;0.97;;
4758;SDS011;2393;50.560;12.636;2023-09-30T13:20:03;4.57;;;0.87;;
4758;SDS011;2393;50.560;12.636;2023-09-30T13:22:33;1.83;;;0.60;;
4758;SDS011;2393;50.560;12.636;2023-09-30T13:25:03;1.63;;;0.60;;
4758;SDS011;2393;50.560;12.636;2023-09-30T13:27:32;1.20;;;0.80;;
4758;SDS011;2393;50.560;12.636;2023-09-30T13:30:01;1.70;;;0.80;;
4758;SDS011;2393;50.560;12.636;2023-09-30T13:32:29;4.13;;;0.97;;
4758;SDS011;2393;50.560;12.636;2023-09-30T13:34:59;2.40;;;0.93;;
4758;SDS011;2393;50.560;12.636;2023-09-30T13:37:29;2.53;;;0.83;;
4758;SDS011;2393;50.560;12.636;2023-09-30T13:39:59;1.10;;;0.60;;
4758;SDS011;2393;50.560;12.636;2023-09-30T13:42:29;2.63;;;0.57;;
4758;SDS011;2393;50.560;12.636;2023-09-30T13:44:57;5.90;;;1.03;;
4758;SDS011;2393;50.560;12.636;2023-09-30T13:47:26;3.30;;;1.00;;
4758;SDS011;2393;50.560;12.636;2023-09-30T13:49:55;5.13;;;1.37;;
4758;SDS011;2393;50.560;12.636;2023-09-30T13:52:23;1.90;;;0.70;;
4758;SDS011;2393;50.560;12.636;2023-09-30T13:54:53;3.27;;;0.97;;
4758;SDS011;2393;50.560;12.636;2023-09-30T13:57:22;4.03;;;0.97;;
4758;SDS011;2393;50.560;12.636;2023-09-30T13:59:51;0.87;;;0.73;;
4758;SDS011;2393;50.560;12.636;2023-09-30T14:02:19;1.47;;;0.53;;
4758;SDS011;2393;50.560;12.636;2023-09-30T14:04:48;2.10;;;0.80;;
4758;SDS011;2393;50.560;12.636;2023-09-30T14:07:20;1.63;;;0.73;;
4758;SDS011;2393;50.560;12.636;2023-09-30T14:09:49;2.00;;;1.03;;
4758;SDS011;2393;50.560;12.636;2023-09-30T14:12:22;1.27;;;0.83;;
4758;SDS011;2393;50.560;12.636;2023-09-30T14:14:50;1.30;;;0.77;;
4758;SDS011;2393;50.560;12.636;2023-09-30T14:17:19;1.17;;;0.80;;
4758;SDS011;2393;50.560;12.636;2023-09-30T14:19:47;1.10;;;0.50;;
4758;SDS011;2393;50.560;12.636;2023-09-30T14:22:16;1.90;;;1.00;;
4758;SDS011;2393;50.560;12.636;2023-09-30T14:24:44;5.67;;;1.23;;
4758;SDS011;2393;50.560;12.636;2023-09-30T14:27:13;2.10;;;0.80;;
4758;SDS011;2393;50.560;12.636;2023-09-30T14:29:43;2.60;;;0.97;;
4758;SDS011;2393;50.560;12.636;2023-09-30T14:32:12;1.43;;;1.00;;
4758;SDS011;2393;50.560;12.636;2023-09-30T14:34:40;4.00;;;0.70;;
4758;SDS011;2393;50.560;12.636;2023-09-30T14:37:09;0.70;;;0.70;;
4758;SDS011;2393;50.560;12.636;2023-09-30T14:39:37;4.80;;;1.00;;
4758;SDS011;2393;50.560;12.636;2023-09-30T14:42:06;1.43;;;1.00;;
4758;SDS011;2393;50.560;12.636;2023-09-30T14:44:35;1.83;;;0.73;;
4758;SDS011;2393;50.560;12.636;2023-09-30T14:47:04;5.73;;;0.60;;
4758;SDS011;2393;50.560;12.636;2023-09-30T14:49:33;6.30;;;1.07;;
4758;SDS011;2393;50.560;12.636;2023-09-30T14:52:02;2.50;;;0.90;;
4758;SDS011;2393;50.560;12.636;2023-09-30T14:54:31;6.20;;;1.93;;
4758;SDS011;2393;50.560;12.636;2023-09-30T14:57:00;2.53;;;0.73;;
4758;SDS011;2393;50.560;12.636;2023-09-30T14:59:29;5.90;;;0.97;;
4758;SDS011;2393;50.560;12.636;2023-09-30T15:02:01;1.03;;;0.40;;
4758;SDS011;2393;50.560;12.636;2023-09-30T15:04:31;4.30;;;1.00;;
4758;SDS011;2393;50.560;12.636;2023-09-30T15:07:00;1.73;;;1.13;;
4758;SDS011;2393;50.560;12.636;2023-09-30T15:09:28;2.60;;;0.77;;
4758;SDS011;2393;50.560;12.636;2023-09-30T15:11:57;1.43;;;0.60;;
4758;SDS011;2393;50.560;12.636;2023-09-30T15:14:25;2.87;;;0.77;;
4758;SDS011;2393;50.560;12.636;2023-09-30T15:16:54;1.93;;;1.00;;
4758;SDS011;2393;50.560;12.636;2023-09-30T15:19:23;1.90;;;0.80;;
4758;SDS011;2393;50.560;12.636;2023-09-30T15:21:52;4.93;;;0.77;;